createdAt,value
2019-04-14T00:00:44.736Z,31.50
2019-04-14T00:03:15.127Z,31.73
2019-04-14T00:05:45.056Z,33.00
2019-04-14T00:08:13.646Z,32.60
2019-04-14T00:10:42.235Z,33.40
2019-04-14T00:13:11.035Z,35.30
2019-04-14T00:15:45.088Z,33.78
2019-04-14T00:18:09.776Z,33.23
2019-04-14T00:20:38.274Z,34.48
2019-04-14T00:23:06.883Z,34.90
2019-04-14T00:25:35.318Z,35.08
2019-04-14T00:28:05.126Z,32.65
2019-04-14T00:30:33.847Z,34.38
2019-04-14T00:33:04.142Z,35.05
2019-04-14T00:35:47.049Z,33.78
2019-04-14T00:38:17.530Z,32.78
2019-04-14T00:40:56.427Z,37.25
2019-04-14T00:43:26.662Z,37.95
2019-04-14T00:46:01.016Z,34.35
2019-04-14T00:48:30.214Z,34.65
2019-04-14T00:50:58.655Z,36.17
2019-04-14T00:53:27.472Z,32.53
2019-04-14T00:55:55.996Z,34.20
2019-04-14T00:58:25.634Z,34.70
2019-04-14T01:00:54.343Z,34.60
2019-04-14T01:03:22.768Z,35.10
2019-04-14T01:05:52.498Z,34.00
2019-04-14T01:08:21.215Z,35.05
2019-04-14T01:10:49.837Z,35.78
2019-04-14T01:13:18.402Z,33.42
2019-04-14T01:15:56.822Z,35.05
2019-04-14T01:18:17.077Z,35.28
2019-04-14T01:20:45.503Z,34.55
2019-04-14T01:23:15.020Z,34.43
2019-04-14T01:25:43.595Z,36.35
2019-04-14T01:28:12.039Z,35.63
2019-04-14T01:30:41.475Z,33.38
2019-04-14T01:33:10.097Z,35.60
2019-04-14T01:35:38.511Z,34.23
2019-04-14T01:38:07.895Z,33.48
2019-04-14T01:40:36.563Z,38.25
2019-04-14T01:43:05.987Z,36.10
2019-04-14T01:45:34.536Z,33.23
2019-04-14T01:48:03.863Z,33.40
2019-04-14T01:50:36.906Z,36.03
2019-04-14T01:53:23.215Z,34.95
2019-04-14T01:56:02.068Z,34.23
2019-04-14T01:58:32.158Z,33.70
2019-04-14T02:01:11.007Z,34.90
2019-04-14T02:03:40.886Z,33.33
2019-04-14T02:06:09.430Z,34.43
2019-04-14T02:08:37.882Z,34.33
2019-04-14T02:11:07.342Z,33.05
2019-04-14T02:13:37.726Z,33.98
2019-04-14T02:16:18.836Z,35.35
2019-04-14T02:18:36.327Z,35.03
2019-04-14T02:21:04.818Z,34.33
2019-04-14T02:23:34.408Z,33.92
2019-04-14T02:26:03.001Z,35.15
2019-04-14T02:28:31.439Z,33.18
2019-04-14T02:31:13.434Z,35.83
2019-04-14T02:33:50.627Z,32.05
2019-04-14T02:38:54.860Z,35.60
2019-04-14T02:41:46.772Z,36.65
2019-04-14T02:44:12.162Z,33.75
2019-04-14T02:46:31.936Z,35.43
2019-04-14T02:48:59.143Z,34.88
2019-04-14T02:51:26.772Z,34.43
2019-04-14T02:54:03.414Z,34.43
2019-04-14T02:59:00.025Z,35.33
2019-04-14T03:04:15.275Z,36.28
2019-04-14T03:06:25.658Z,34.00
2019-04-14T03:09:15.407Z,36.45
2019-04-14T03:14:01.391Z,37.10
2019-04-14T03:16:43.896Z,36.25
2019-04-14T03:19:16.542Z,35.65
2019-04-14T03:21:52.772Z,36.38
2019-04-14T03:24:30.747Z,36.40
2019-04-14T03:29:43.271Z,35.33
2019-04-14T03:32:49.570Z,37.38
2019-04-14T03:34:52.441Z,37.20
2019-04-14T03:37:37.747Z,35.58
2019-04-14T03:42:21.303Z,36.05
2019-04-14T03:44:49.444Z,36.05
2019-04-14T03:47:22.065Z,35.23
2019-04-14T03:54:40.415Z,36.00
2019-04-14T03:56:55.484Z,35.03
2019-04-14T03:59:24.268Z,38.30
2019-04-14T04:01:52.723Z,37.63
2019-04-14T04:04:21.156Z,37.90
2019-04-14T04:06:50.867Z,37.95
2019-04-14T04:09:21.442Z,38.20
2019-04-14T04:11:49.953Z,39.15
2019-04-14T04:14:18.359Z,37.05
2019-04-14T04:17:07.858Z,33.58
2019-04-14T04:19:38.340Z,36.15
2019-04-14T04:22:15.058Z,34.40
2019-04-14T04:24:45.510Z,35.90
2019-04-14T04:27:28.753Z,37.13
2019-04-14T04:29:59.194Z,37.20
2019-04-14T04:32:45.398Z,36.55
2019-04-14T04:35:34.711Z,35.95
2019-04-14T04:38:07.960Z,38.55
2019-04-14T04:40:37.485Z,38.40
2019-04-14T04:43:06.118Z,35.60
2019-04-14T04:45:34.542Z,35.52
2019-04-14T04:48:02.987Z,36.23
2019-04-14T04:50:32.391Z,37.20
2019-04-14T04:53:00.984Z,38.80
2019-04-14T04:55:30.406Z,39.05
2019-04-14T04:57:59.186Z,36.73
2019-04-14T05:00:28.760Z,37.03
2019-04-14T05:02:57.321Z,38.42
2019-04-14T05:06:02.671Z,37.95
2019-04-14T05:08:31.273Z,38.23
2019-04-14T05:11:01.353Z,38.17
2019-04-14T05:13:31.464Z,38.05
2019-04-14T05:15:59.932Z,40.70
2019-04-14T05:18:28.997Z,40.03
2019-04-14T05:20:57.534Z,37.35
2019-04-14T05:23:25.959Z,35.80
2019-04-14T05:25:54.398Z,37.80
2019-04-14T05:28:22.820Z,36.55
2019-04-14T05:30:52.429Z,37.70
2019-04-14T05:33:21.092Z,36.00
2019-04-14T05:35:51.337Z,38.00
2019-04-14T05:38:19.778Z,37.88
2019-04-14T05:40:48.221Z,40.03
2019-04-14T05:43:28.269Z,39.90
2019-04-14T05:45:47.916Z,42.03
2019-04-14T05:48:16.509Z,39.67
2019-04-14T05:50:45.019Z,38.55
2019-04-14T05:53:13.500Z,37.00
2019-04-14T05:55:41.962Z,34.40
2019-04-14T05:58:10.392Z,37.05
2019-04-14T06:00:39.844Z,36.93
2019-04-14T06:03:08.264Z,37.03
2019-04-14T06:05:36.763Z,37.15
2019-04-14T06:08:05.410Z,36.28
2019-04-14T06:10:34.717Z,34.98
2019-04-14T06:13:03.157Z,35.33
2019-04-14T06:15:31.604Z,35.98
2019-04-14T06:18:00.023Z,36.45
2019-04-14T06:20:28.466Z,34.60
2019-04-14T06:22:56.912Z,35.68
2019-04-14T06:25:25.380Z,33.90
2019-04-14T06:27:53.819Z,33.05
2019-04-14T06:30:32.935Z,33.10
2019-04-14T06:33:03.027Z,31.48
2019-04-14T06:35:33.103Z,32.63
2019-04-14T06:38:06.145Z,34.53
2019-04-14T06:40:51.003Z,31.93
2019-04-14T06:43:19.451Z,33.02
2019-04-14T06:45:47.897Z,31.23
2019-04-14T06:48:16.339Z,29.80
2019-04-14T06:50:46.397Z,29.05
2019-04-14T06:53:15.367Z,30.27
2019-04-14T06:55:43.815Z,28.92
2019-04-14T06:58:12.273Z,28.83
2019-04-14T07:00:40.712Z,28.77
2019-04-14T07:03:09.160Z,29.60
2019-04-14T07:05:37.579Z,27.35
2019-04-14T07:08:06.026Z,27.98
2019-04-14T07:10:34.466Z,28.92
2019-04-14T07:13:02.920Z,28.50
2019-04-14T07:15:31.344Z,26.05
2019-04-14T07:17:59.791Z,28.05
2019-04-14T07:20:28.223Z,27.35
2019-04-14T07:22:56.666Z,27.75
2019-04-14T07:25:25.094Z,26.52
2019-04-14T07:27:53.559Z,24.95
2019-04-14T07:30:26.794Z,28.27
2019-04-14T07:33:02.635Z,28.60
2019-04-14T07:35:35.384Z,27.37
2019-04-14T07:38:05.516Z,26.10
2019-04-14T07:40:50.626Z,27.25
2019-04-14T07:43:35.963Z,24.47
2019-04-14T07:46:06.111Z,25.90
2019-04-14T07:48:36.191Z,26.35
2019-04-14T07:51:18.358Z,28.02
2019-04-14T07:53:57.393Z,27.22
2019-04-14T07:56:27.478Z,28.23
2019-04-14T07:58:57.558Z,27.48
2019-04-14T08:01:30.412Z,25.80
2019-04-14T08:04:06.309Z,26.82
2019-04-14T08:06:34.734Z,26.40
2019-04-14T08:09:05.226Z,26.82
2019-04-14T08:11:33.645Z,27.48
2019-04-14T08:14:02.096Z,26.90
2019-04-14T08:16:30.535Z,26.65
2019-04-14T08:18:58.959Z,28.47
2019-04-14T08:21:27.482Z,28.25
2019-04-14T08:23:55.912Z,25.00
2019-04-14T08:26:24.486Z,25.45
2019-04-14T08:28:52.934Z,27.13
2019-04-14T08:31:22.942Z,25.95
2019-04-14T08:33:51.387Z,26.12
2019-04-14T08:36:19.945Z,26.40
2019-04-14T08:38:48.375Z,23.70
2019-04-14T08:41:16.898Z,25.20
2019-04-14T08:43:52.933Z,25.75
2019-04-14T08:46:28.959Z,26.40
2019-04-14T08:49:08.063Z,26.23
2019-04-14T08:51:38.171Z,25.88
2019-04-14T08:54:11.261Z,23.20
2019-04-14T08:56:53.108Z,23.38
2019-04-14T08:59:39.464Z,24.10
2019-04-14T09:02:12.408Z,24.20
2019-04-14T09:04:45.471Z,26.77
2019-04-14T09:07:32.003Z,23.03
2019-04-14T09:10:02.073Z,24.23
2019-04-14T09:12:32.175Z,24.27
2019-04-14T09:15:00.631Z,24.40
2019-04-14T09:17:30.607Z,23.43
2019-04-14T09:19:59.119Z,22.77
2019-04-14T09:22:27.579Z,22.50
2019-04-14T09:24:56.020Z,22.50
2019-04-14T09:27:24.459Z,23.30
2019-04-14T09:29:52.903Z,23.57
2019-04-14T09:32:21.784Z,24.50
2019-04-14T09:34:50.230Z,22.57
2019-04-14T09:37:18.687Z,24.00
2019-04-14T09:39:47.127Z,23.10
2019-04-14T09:42:15.647Z,24.20
2019-04-14T09:44:44.080Z,24.07
2019-04-14T09:47:12.559Z,23.57
2019-04-14T09:49:41.047Z,23.13
2019-04-14T09:52:09.615Z,23.77
2019-04-14T09:54:38.043Z,23.73
2019-04-14T09:57:06.668Z,24.40
2019-04-14T09:59:35.116Z,22.40
2019-04-14T10:02:03.882Z,23.90
2019-04-14T10:04:32.466Z,23.13
2019-04-14T10:07:00.910Z,23.97
2019-04-14T10:09:29.422Z,26.23
2019-04-14T10:11:57.855Z,24.47
2019-04-14T10:14:26.378Z,23.73
2019-04-14T10:16:54.819Z,24.20
2019-04-14T10:19:23.259Z,24.93
2019-04-14T10:21:51.700Z,21.37
2019-04-14T10:24:20.220Z,24.03
2019-04-14T10:26:48.758Z,23.87
2019-04-14T10:29:17.223Z,23.10
2019-04-14T10:31:45.659Z,23.27
2019-04-14T10:34:14.133Z,25.70
2019-04-14T10:36:42.577Z,24.60
2019-04-14T10:39:11.059Z,23.37
2019-04-14T10:41:39.483Z,22.07
2019-04-14T10:44:08.019Z,25.63
2019-04-14T10:46:36.450Z,23.87
2019-04-14T10:49:06.428Z,25.93
2019-04-14T10:51:34.855Z,25.30
2019-04-14T10:54:03.404Z,24.73
2019-04-14T10:56:31.851Z,25.60
2019-04-14T10:59:00.262Z,24.80
2019-04-14T11:01:28.724Z,24.10
2019-04-14T11:03:57.175Z,23.93
2019-04-14T11:06:27.455Z,24.13
2019-04-14T11:08:55.889Z,24.37
2019-04-14T11:11:24.414Z,23.87
2019-04-14T11:13:52.915Z,24.57
2019-04-14T11:16:21.363Z,25.33
2019-04-14T11:18:49.794Z,26.57
2019-04-14T11:21:18.272Z,25.17
2019-04-14T11:23:46.723Z,24.23
2019-04-14T11:26:15.204Z,23.57
2019-04-14T11:28:43.643Z,25.73
2019-04-14T11:31:13.454Z,25.20
2019-04-14T11:34:00.505Z,24.17
2019-04-14T11:36:49.049Z,23.33
2019-04-14T11:39:19.187Z,25.17
2019-04-14T11:41:47.671Z,25.33
2019-04-14T11:44:16.132Z,25.50
2019-04-14T11:46:44.662Z,23.67
2019-04-14T11:49:13.108Z,25.70
2019-04-14T11:51:54.233Z,23.23
2019-04-14T11:54:11.883Z,23.53
2019-04-14T11:56:40.612Z,25.20
2019-04-14T11:59:09.047Z,23.57
2019-04-14T12:01:48.363Z,23.13
2019-04-14T12:04:27.531Z,23.83
2019-04-14T12:07:12.693Z,23.80
2019-04-14T12:09:42.762Z,24.00
2019-04-14T12:12:11.222Z,23.20
2019-04-14T12:14:39.635Z,21.20
2019-04-14T12:17:08.109Z,22.93
2019-04-14T12:19:36.563Z,21.30
2019-04-14T12:22:08.410Z,20.57
2019-04-14T12:24:35.372Z,20.83
2019-04-14T12:27:04.027Z,21.73
2019-04-14T12:29:32.581Z,21.57
2019-04-14T12:32:01.761Z,22.80
2019-04-14T12:34:30.421Z,22.43
2019-04-14T12:36:58.887Z,22.23
2019-04-14T12:39:27.336Z,21.53
2019-04-14T12:41:58.313Z,23.10
2019-04-14T12:44:31.346Z,22.17
2019-04-14T12:47:07.635Z,22.27
2019-04-14T12:49:52.886Z,21.80
2019-04-14T12:52:23.048Z,20.87
2019-04-14T12:54:51.480Z,22.03
2019-04-14T12:57:39.640Z,22.17
2019-04-14T13:00:09.856Z,21.40
2019-04-14T13:02:39.958Z,21.80
2019-04-14T13:05:08.730Z,21.00
2019-04-14T13:07:37.210Z,21.70
2019-04-14T13:10:07.652Z,21.43
2019-04-14T13:12:36.114Z,21.43
2019-04-14T13:15:06.287Z,22.07
2019-04-14T13:17:34.743Z,21.60
2019-04-14T13:20:05.363Z,23.73
2019-04-14T13:22:34.506Z,21.57
2019-04-14T13:25:03.373Z,21.20
2019-04-14T13:27:31.803Z,21.63
2019-04-14T13:30:00.280Z,21.70
2019-04-14T13:32:35.902Z,20.27
2019-04-14T13:34:58.957Z,20.33
2019-04-14T13:37:27.403Z,20.63
2019-04-14T13:39:55.877Z,18.63
2019-04-14T13:42:24.303Z,19.00
2019-04-14T13:44:54.399Z,18.80
2019-04-14T13:47:22.847Z,17.90
2019-04-14T13:49:51.316Z,18.20
2019-04-14T13:52:19.740Z,18.70
2019-04-14T13:54:48.227Z,18.53
2019-04-14T13:57:16.700Z,18.37
2019-04-14T13:59:45.160Z,16.87
2019-04-14T14:02:13.607Z,17.80
2019-04-14T14:04:42.069Z,17.97
2019-04-14T14:07:10.614Z,17.50
2019-04-14T14:09:39.145Z,16.23
2019-04-14T14:12:09.275Z,16.57
2019-04-14T14:14:55.365Z,17.00
2019-04-14T14:17:28.234Z,15.63
2019-04-14T14:20:01.121Z,15.90
2019-04-14T14:22:33.903Z,16.20
2019-04-14T14:25:09.986Z,14.53
2019-04-14T14:27:38.536Z,14.80
2019-04-14T14:30:09.064Z,14.17
2019-04-14T14:32:37.531Z,15.67
2019-04-14T14:35:06.586Z,14.87
2019-04-14T14:37:35.696Z,12.47
2019-04-14T14:40:05.871Z,14.20
2019-04-14T14:42:34.320Z,13.50
2019-04-14T14:45:20.887Z,13.73
2019-04-14T14:47:51.019Z,12.83
2019-04-14T14:50:33.158Z,13.03
2019-04-14T14:53:11.402Z,13.53
2019-04-14T14:55:31.779Z,14.03
2019-04-14T14:58:00.247Z,12.90
2019-04-14T15:00:30.318Z,14.80
2019-04-14T15:02:58.771Z,14.80
2019-04-14T15:05:27.280Z,13.70
2019-04-14T15:07:55.799Z,14.63
2019-04-14T15:10:24.252Z,14.47
2019-04-14T15:12:52.783Z,13.20
2019-04-14T15:15:21.263Z,14.77
2019-04-14T15:17:49.858Z,13.60
2019-04-14T15:20:18.367Z,14.60
2019-04-14T15:22:47.032Z,15.27
2019-04-14T15:25:15.531Z,14.33
2019-04-14T15:27:44.002Z,12.90
2019-04-14T15:30:17.161Z,13.53
2019-04-14T15:32:45.614Z,15.67
2019-04-14T15:35:14.449Z,15.00
2019-04-14T15:37:42.935Z,15.17
2019-04-14T15:40:11.792Z,15.17
2019-04-14T15:42:40.412Z,14.43
2019-04-14T15:45:09.555Z,14.70
2019-04-14T15:47:38.147Z,14.50
2019-04-14T15:50:07.230Z,15.70
2019-04-14T15:52:35.683Z,13.93
2019-04-14T15:55:05.552Z,14.33
2019-04-14T15:57:35.710Z,14.07
2019-04-14T16:00:14.310Z,14.97
2019-04-14T16:03:00.705Z,13.83
2019-04-14T16:05:47.098Z,14.40
2019-04-14T16:08:17.203Z,14.17
2019-04-14T16:10:47.349Z,14.90
2019-04-14T16:13:17.479Z,16.57
2019-04-14T16:16:04.071Z,15.63
2019-04-14T16:18:50.524Z,15.80
2019-04-14T16:21:19.005Z,15.13
2019-04-14T16:23:50.758Z,15.80
2019-04-14T16:26:31.261Z,15.60
2019-04-14T16:29:02.737Z,15.70
2019-04-14T16:31:49.371Z,15.77
2019-04-14T16:34:22.454Z,14.87
2019-04-14T16:36:52.223Z,14.15
2019-04-14T16:39:20.987Z,14.90
2019-04-14T16:41:49.426Z,15.50
2019-04-14T16:44:17.882Z,17.00
2019-04-14T16:46:46.319Z,15.93
2019-04-14T16:49:14.768Z,15.58
2019-04-14T16:51:53.878Z,18.25
2019-04-14T16:54:24.006Z,15.20
2019-04-14T16:56:54.099Z,15.88
2019-04-14T16:59:22.554Z,17.20
2019-04-14T17:01:50.988Z,17.00
2019-04-14T17:04:19.424Z,15.43
2019-04-14T17:06:47.875Z,16.35
2019-04-14T17:09:16.335Z,17.00
2019-04-14T17:11:46.394Z,16.70
2019-04-14T17:14:16.467Z,15.83
2019-04-14T17:17:02.879Z,16.70
2019-04-14T17:19:35.923Z,16.67
2019-04-14T17:22:07.690Z,15.75
2019-04-14T17:24:43.708Z,14.18
2019-04-14T17:27:23.040Z,15.95
2019-04-14T17:29:59.043Z,14.30
2019-04-14T17:32:47.190Z,15.75
2019-04-14T17:35:23.178Z,14.60
2019-04-14T17:37:53.237Z,17.15
2019-04-14T17:40:25.791Z,15.35
2019-04-14T17:43:01.642Z,15.05
2019-04-14T17:45:50.711Z,14.33
2019-04-14T17:48:29.712Z,15.05
2019-04-14T17:51:03.483Z,16.30
2019-04-14T17:53:33.815Z,14.55
2019-04-14T17:56:03.924Z,14.68
2019-04-14T17:58:51.810Z,15.40
2019-04-14T18:01:21.916Z,15.80
2019-04-14T18:04:08.448Z,17.15
2019-04-14T18:06:44.558Z,14.98
2019-04-14T18:09:28.837Z,15.03
2019-04-14T18:12:01.595Z,14.58
2019-04-14T18:14:31.658Z,15.03
2019-04-14T18:17:13.900Z,13.48
2019-04-14T18:19:59.106Z,14.28
2019-04-14T18:22:27.567Z,14.65
2019-04-14T18:24:56.007Z,13.80
2019-04-14T18:27:24.456Z,14.23
2019-04-14T18:29:57.060Z,13.53
2019-04-14T18:32:27.172Z,14.33
2019-04-14T18:34:57.366Z,13.45
2019-04-14T18:37:43.916Z,13.18
2019-04-14T18:40:26.412Z,12.50
2019-04-14T18:43:05.285Z,13.70
2019-04-14T18:45:35.386Z,12.82
2019-04-14T18:48:11.227Z,14.20
2019-04-14T18:50:43.736Z,13.30
2019-04-14T18:53:25.714Z,13.38
2019-04-14T18:56:01.651Z,12.90
2019-04-14T18:58:49.944Z,13.58
2019-04-14T19:01:20.037Z,12.82
2019-04-14T19:03:48.953Z,14.87
2019-04-14T19:06:18.050Z,13.90
2019-04-14T19:08:46.567Z,13.95
2019-04-14T19:11:17.153Z,14.75
2019-04-14T19:13:59.351Z,13.65
2019-04-14T19:16:39.631Z,12.60
2019-04-14T19:19:06.843Z,12.98
2019-04-14T19:21:35.338Z,12.80
2019-04-14T19:24:03.990Z,12.70
2019-04-14T19:26:32.555Z,11.60
2019-04-14T19:29:01.062Z,12.33
2019-04-14T19:31:29.628Z,11.60
2019-04-14T19:33:58.054Z,12.10
2019-04-14T19:36:26.511Z,11.90
2019-04-14T19:38:54.944Z,12.45
2019-04-14T19:41:23.416Z,10.88
2019-04-14T19:43:51.894Z,10.58
2019-04-14T19:46:20.454Z,10.50
2019-04-14T19:48:48.964Z,10.30
2019-04-14T19:51:17.549Z,10.48
2019-04-14T19:53:46.087Z,11.03
2019-04-14T19:56:14.532Z,10.50
2019-04-14T19:58:43.001Z,21.35
2019-04-14T20:01:11.440Z,11.25
2019-04-14T20:03:39.867Z,10.98
2019-04-14T20:06:08.342Z,10.20
2019-04-14T20:08:36.775Z,9.40
2019-04-14T20:11:05.290Z,10.20
2019-04-14T20:13:35.454Z,10.08
2019-04-14T20:16:22.297Z,9.65
2019-04-14T20:18:55.186Z,10.18
2019-04-14T20:21:41.418Z,8.83
2019-04-14T20:24:11.480Z,8.85
2019-04-14T20:26:41.596Z,9.23
2019-04-14T20:29:17.477Z,9.48
2019-04-14T20:31:50.309Z,8.48
2019-04-14T20:34:18.732Z,9.63
2019-04-14T20:36:47.240Z,10.00
2019-04-14T20:39:16.555Z,9.20
2019-04-14T20:41:47.183Z,9.30
2019-04-14T20:44:15.798Z,10.15
2019-04-14T20:46:44.298Z,9.65
2019-04-14T20:49:12.895Z,9.85
2019-04-14T20:51:41.311Z,10.93
2019-04-14T20:54:09.831Z,9.05
2019-04-14T20:56:38.241Z,9.98
2019-04-14T20:59:06.793Z,10.65
2019-04-14T21:01:36.853Z,10.30
2019-04-14T21:04:18.952Z,9.58
2019-04-14T21:07:05.079Z,10.82
2019-04-14T21:09:47.259Z,10.72
2019-04-14T21:12:23.083Z,9.30
2019-04-14T21:14:53.208Z,10.15
2019-04-14T21:17:25.990Z,10.18
2019-04-14T21:19:58.786Z,9.98
2019-04-14T21:22:28.919Z,10.50
2019-04-14T21:24:59.018Z,10.23
2019-04-14T21:27:45.543Z,10.90
2019-04-14T21:30:15.870Z,9.68
2019-04-14T21:32:49.038Z,10.70
2019-04-14T21:35:35.154Z,11.65
2019-04-14T21:38:07.959Z,11.12
2019-04-14T21:40:46.960Z,10.68
2019-04-14T21:43:15.696Z,10.30
2019-04-14T21:45:44.147Z,13.10
2019-04-14T21:48:12.734Z,11.60
2019-04-14T21:50:41.165Z,11.40
2019-04-14T21:53:09.867Z,11.30
2019-04-14T21:55:38.331Z,12.15
2019-04-14T21:58:20.479Z,10.38
2019-04-14T22:00:53.657Z,11.75
2019-04-14T22:03:31.290Z,11.53
2019-04-14T22:06:01.466Z,10.88
2019-04-14T22:08:31.515Z,11.10
2019-04-14T22:11:01.697Z,11.22
2019-04-14T22:13:31.642Z,12.68
2019-04-14T22:16:00.318Z,10.58
2019-04-14T22:18:28.738Z,9.68
2019-04-14T22:20:57.255Z,10.03
2019-04-14T22:23:25.673Z,10.32
2019-04-14T22:25:54.125Z,10.38
2019-04-14T22:28:22.554Z,11.12
2019-04-14T22:30:51.216Z,11.10
2019-04-14T22:33:19.715Z,11.85
2019-04-14T22:35:48.148Z,11.90
2019-04-14T22:38:16.631Z,10.63
2019-04-14T22:40:45.079Z,10.90
2019-04-14T22:43:13.499Z,11.33
2019-04-14T22:45:41.926Z,11.20
2019-04-14T22:48:10.388Z,11.45
2019-04-14T22:50:38.823Z,11.12
2019-04-14T22:53:07.267Z,10.45
2019-04-14T22:55:35.695Z,10.98
2019-04-14T22:58:04.209Z,10.08
2019-04-14T23:00:37.379Z,12.23
2019-04-14T23:03:07.469Z,12.82
2019-04-14T23:05:39.983Z,11.60
2019-04-14T23:08:28.387Z,11.28
2019-04-14T23:11:01.086Z,11.05
2019-04-14T23:13:33.914Z,12.65
2019-04-14T23:16:22.519Z,11.75
2019-04-14T23:18:52.686Z,12.78
2019-04-14T23:21:22.742Z,12.03
2019-04-14T23:24:01.982Z,11.00
2019-04-14T23:26:30.438Z,12.35
2019-04-14T23:28:58.879Z,12.82
2019-04-14T23:31:27.300Z,13.03
2019-04-14T23:33:55.741Z,11.30
2019-04-14T23:36:24.159Z,11.75
2019-04-14T23:38:52.593Z,11.90
2019-04-14T23:41:21.092Z,10.88
2019-04-14T23:43:49.526Z,12.00
2019-04-14T23:46:17.951Z,12.68
2019-04-14T23:48:47.926Z,12.53
2019-04-14T23:51:16.417Z,12.20
2019-04-14T23:53:44.861Z,11.38
2019-04-14T23:56:13.302Z,12.75
2019-04-14T23:58:41.761Z,12.28
